FIN4KB ESSA-EFHK
Flight info
| Callsign | FIN4KB |
|---|---|
| Flight time | 0h 37m |
| Altitude | 29000 |
| Route | TOVRI N851 RIKUM DCT RIRIP Y364 LAKUT |
| Aircraft | A321/M-SDE3FGHIRWY/LB1 |
Departure
| Time | 2026-04-26 18:56 |
|---|---|
| Airport | Stockholm-Arlanda Airport (ESSA) |
Arrival
| Time | 2026-04-26 19:33 |
|---|---|
| Airport | Helsinki Vantaa Airport (EFHK) |
| Time | Latitude | Longitude | Altitude | Speed | Heading |
|---|---|---|---|---|---|
| 2026-04-26 18:15 | 59.64433 | 17.92678 | 113 ft | 0 kts | 50° |
| 2026-04-26 18:31 | 59.64432 | 17.92678 | 112 ft | 0 kts | 50° |
| 2026-04-26 18:42 | 59.64432 | 17.92676 | 112 ft | 1 kts | 50° |
| 2026-04-26 18:42 | 59.64422 | 17.92653 | 112 ft | 3 kts | 50° |
| 2026-04-26 18:42 | 59.64410 | 17.92622 | 110 ft | 3 kts | 51° |
| 2026-04-26 18:43 | 59.64397 | 17.92591 | 110 ft | 3 kts | 51° |
| 2026-04-26 18:43 | 59.64384 | 17.92559 | 111 ft | 3 kts | 51° |
| 2026-04-26 18:43 | 59.64372 | 17.92528 | 112 ft | 3 kts | 51° |
| 2026-04-26 18:43 | 59.64365 | 17.92511 | 111 ft | 0 kts | 51° |
| 2026-04-26 18:47 | 59.64365 | 17.92526 | 112 ft | 5 kts | 89° |
| 2026-04-26 18:47 | 59.64310 | 17.92559 | 113 ft | 10 kts | 209° |
| 2026-04-26 18:48 | 59.64252 | 17.92494 | 115 ft | 9 kts | 213° |
| 2026-04-26 18:48 | 59.64235 | 17.92379 | 113 ft | 11 kts | 280° |
| 2026-04-26 18:48 | 59.64268 | 17.92222 | 113 ft | 13 kts | 294° |
| 2026-04-26 18:48 | 59.64308 | 17.92051 | 113 ft | 8 kts | 297° |
| 2026-04-26 18:49 | 59.64322 | 17.91931 | 112 ft | 10 kts | 251° |
| 2026-04-26 18:49 | 59.64269 | 17.91881 | 113 ft | 11 kts | 189° |
| 2026-04-26 18:49 | 59.64184 | 17.91852 | 114 ft | 13 kts | 190° |
| 2026-04-26 18:49 | 59.64092 | 17.91819 | 114 ft | 14 kts | 191° |
| 2026-04-26 18:50 | 59.63991 | 17.91778 | 112 ft | 16 kts | 191° |
| 2026-04-26 18:50 | 59.63882 | 17.91740 | 109 ft | 14 kts | 193° |
| 2026-04-26 18:50 | 59.63838 | 17.91700 | 108 ft | 0 kts | 215° |
| 2026-04-26 18:50 | 59.63829 | 17.91687 | 106 ft | 4 kts | 216° |
| 2026-04-26 18:51 | 59.63799 | 17.91641 | 106 ft | 6 kts | 220° |
| 2026-04-26 18:51 | 59.63786 | 17.91619 | 107 ft | 0 kts | 220° |
| 2026-04-26 18:51 | 59.63781 | 17.91610 | 107 ft | 0 kts | 220° |
| 2026-04-26 18:52 | 59.63780 | 17.91609 | 107 ft | 0 kts | 220° |
| 2026-04-26 18:52 | 59.63773 | 17.91597 | 107 ft | 2 kts | 221° |
| 2026-04-26 18:53 | 59.63737 | 17.91530 | 107 ft | 11 kts | 233° |
| 2026-04-26 18:53 | 59.63731 | 17.91416 | 109 ft | 7 kts | 280° |
| 2026-04-26 18:53 | 59.63751 | 17.91347 | 110 ft | 6 kts | 330° |
| 2026-04-26 18:53 | 59.63789 | 17.91346 | 110 ft | 0 kts | 7° |
| 2026-04-26 18:54 | 59.63795 | 17.91348 | 109 ft | 0 kts | 9° |
| 2026-04-26 18:55 | 59.63845 | 17.91364 | 109 ft | 34 kts | 9° |
| 2026-04-26 18:55 | 59.64334 | 17.91530 | 108 ft | 106 kts | 7° |
| 2026-04-26 18:55 | 59.65244 | 17.91865 | 112 ft | 162 kts | 1° |
| 2026-04-26 18:55 | 59.66390 | 17.92371 | 737 ft | 163 kts | 9° |
| 2026-04-26 18:56 | 59.67492 | 17.92856 | 1565 ft | 166 kts | 8° |
| 2026-04-26 18:56 | 59.68697 | 17.93306 | 1915 ft | 185 kts | 7° |
| 2026-04-26 18:56 | 59.70002 | 17.93733 | 2413 ft | 193 kts | 6° |
| 2026-04-26 18:56 | 59.71313 | 17.94167 | 3102 ft | 192 kts | 6° |
| 2026-04-26 18:57 | 59.72646 | 17.94621 | 3760 ft | 193 kts | 7° |
| 2026-04-26 18:57 | 59.73094 | 17.94775 | 3974 ft | 194 kts | 7° |
| 2026-04-26 18:57 | 59.75169 | 17.96527 | 4856 ft | 216 kts | 43° |
| 2026-04-26 18:57 | 59.75831 | 17.99438 | 4975 ft | 257 kts | 81° |
| 2026-04-26 18:58 | 59.75754 | 18.03114 | 5502 ft | 274 kts | 91° |
| 2026-04-26 18:58 | 59.75610 | 18.06890 | 6375 ft | 272 kts | 83° |
| 2026-04-26 18:58 | 59.76044 | 18.10481 | 7077 ft | 272 kts | 64° |
| 2026-04-26 18:58 | 59.76470 | 18.12874 | 7600 ft | 275 kts | 67° |
| 2026-04-26 18:59 | 59.77041 | 18.16306 | 8411 ft | 278 kts | 66° |
| 2026-04-26 18:59 | 59.77672 | 18.20024 | 9231 ft | 281 kts | 66° |
| 2026-04-26 18:59 | 59.78309 | 18.23692 | 10068 ft | 283 kts | 65° |
| 2026-04-26 18:59 | 59.78953 | 18.27422 | 10673 ft | 293 kts | 65° |
| 2026-04-26 19:00 | 59.79634 | 18.31463 | 10851 ft | 317 kts | 66° |
| 2026-04-26 19:00 | 59.80331 | 18.35715 | 11103 ft | 336 kts | 66° |
| 2026-04-26 19:00 | 59.81054 | 18.40211 | 11704 ft | 343 kts | 66° |
| 2026-04-26 19:00 | 59.81787 | 18.44801 | 12399 ft | 346 kts | 66° |
| 2026-04-26 19:01 | 59.82521 | 18.49391 | 13113 ft | 349 kts | 65° |
| 2026-04-26 19:01 | 59.83255 | 18.53953 | 13824 ft | 353 kts | 65° |
| 2026-04-26 19:01 | 59.84008 | 18.58604 | 14448 ft | 356 kts | 64° |
| 2026-04-26 19:01 | 59.84785 | 18.63381 | 15061 ft | 360 kts | 64° |
| 2026-04-26 19:02 | 59.85561 | 18.68141 | 15674 ft | 364 kts | 64° |
| 2026-04-26 19:02 | 59.86336 | 18.72904 | 16268 ft | 368 kts | 63° |
| 2026-04-26 19:02 | 59.87135 | 18.77839 | 16873 ft | 372 kts | 63° |
| 2026-04-26 19:02 | 59.87660 | 18.81097 | 17270 ft | 374 kts | 63° |
| 2026-04-26 19:03 | 59.88725 | 18.87741 | 18058 ft | 380 kts | 63° |
| 2026-04-26 19:03 | 59.89522 | 18.92720 | 18608 ft | 384 kts | 63° |
| 2026-04-26 19:03 | 59.90345 | 18.97870 | 19138 ft | 387 kts | 62° |
| 2026-04-26 19:03 | 59.91167 | 19.03019 | 19666 ft | 391 kts | 62° |
| 2026-04-26 19:04 | 59.91990 | 19.08188 | 20189 ft | 394 kts | 62° |
| 2026-04-26 19:04 | 59.92823 | 19.13438 | 20721 ft | 398 kts | 62° |
| 2026-04-26 19:04 | 59.93652 | 19.18699 | 21246 ft | 401 kts | 62° |
| 2026-04-26 19:04 | 59.94488 | 19.24040 | 21756 ft | 405 kts | 62° |
| 2026-04-26 19:05 | 59.96162 | 19.34829 | 22759 ft | 411 kts | 62° |
| 2026-04-26 19:05 | 59.97011 | 19.40303 | 23238 ft | 415 kts | 62° |
| 2026-04-26 19:05 | 59.97810 | 19.45889 | 23697 ft | 420 kts | 64° |
| 2026-04-26 19:06 | 59.98538 | 19.51572 | 24070 ft | 425 kts | 65° |
| 2026-04-26 19:06 | 59.99224 | 19.57341 | 24466 ft | 429 kts | 66° |
| 2026-04-26 19:06 | 59.99892 | 19.63171 | 24864 ft | 431 kts | 66° |
| 2026-04-26 19:06 | 60.00562 | 19.69036 | 25255 ft | 433 kts | 66° |
| 2026-04-26 19:07 | 60.01244 | 19.74892 | 25646 ft | 435 kts | 65° |
| 2026-04-26 19:07 | 60.01951 | 19.80810 | 26035 ft | 437 kts | 65° |
| 2026-04-26 19:07 | 60.02663 | 19.86717 | 26415 ft | 439 kts | 65° |
| 2026-04-26 19:07 | 60.03385 | 19.92695 | 26784 ft | 442 kts | 65° |
| 2026-04-26 19:08 | 60.04103 | 19.98668 | 27153 ft | 444 kts | 65° |
| 2026-04-26 19:08 | 60.04817 | 20.04634 | 27521 ft | 447 kts | 65° |
| 2026-04-26 19:08 | 60.05540 | 20.10755 | 27868 ft | 450 kts | 65° |
| 2026-04-26 19:08 | 60.06255 | 20.16860 | 28219 ft | 452 kts | 65° |
| 2026-04-26 19:09 | 60.06972 | 20.23026 | 28569 ft | 455 kts | 65° |
| 2026-04-26 19:09 | 60.07686 | 20.29213 | 28904 ft | 457 kts | 65° |
| 2026-04-26 19:09 | 60.08397 | 20.35420 | 29046 ft | 455 kts | 65° |
| 2026-04-26 19:09 | 60.09080 | 20.41515 | 29054 ft | 444 kts | 65° |
| 2026-04-26 19:10 | 60.09754 | 20.47524 | 29053 ft | 440 kts | 65° |
| 2026-04-26 19:10 | 60.11103 | 20.59434 | 29042 ft | 438 kts | 65° |
| 2026-04-26 19:11 | 60.12453 | 20.71327 | 29043 ft | 437 kts | 65° |
| 2026-04-26 19:11 | 60.13791 | 20.83226 | 29035 ft | 437 kts | 65° |
| 2026-04-26 19:12 | 60.15111 | 20.95081 | 29041 ft | 437 kts | 65° |
| 2026-04-26 19:12 | 60.16419 | 21.07087 | 29042 ft | 437 kts | 66° |
| 2026-04-26 19:13 | 60.17708 | 21.18998 | 29020 ft | 437 kts | 66° |
| 2026-04-26 19:13 | 60.18994 | 21.30927 | 29032 ft | 437 kts | 66° |
| 2026-04-26 19:14 | 60.20270 | 21.42874 | 29042 ft | 437 kts | 66° |
| 2026-04-26 19:14 | 60.21532 | 21.54830 | 29039 ft | 437 kts | 67° |
| 2026-04-26 19:15 | 60.22781 | 21.66770 | 29037 ft | 437 kts | 67° |
| 2026-04-26 19:15 | 60.24024 | 21.78747 | 29028 ft | 436 kts | 67° |
| 2026-04-26 19:16 | 60.25255 | 21.90702 | 29014 ft | 436 kts | 68° |
| 2026-04-26 19:16 | 60.26465 | 22.02668 | 29008 ft | 436 kts | 68° |
| 2026-04-26 19:17 | 60.27672 | 22.14652 | 29004 ft | 436 kts | 68° |
| 2026-04-26 19:17 | 60.28872 | 22.26613 | 28988 ft | 436 kts | 68° |
| 2026-04-26 19:18 | 60.30058 | 22.38592 | 28992 ft | 436 kts | 69° |
| 2026-04-26 19:18 | 60.30653 | 22.44639 | 28963 ft | 447 kts | 69° |
| 2026-04-26 19:18 | 60.31268 | 22.50857 | 28962 ft | 453 kts | 69° |
| 2026-04-26 19:19 | 60.32479 | 22.63352 | 28964 ft | 455 kts | 70° |
| 2026-04-26 19:19 | 60.33670 | 22.75914 | 28963 ft | 455 kts | 70° |
| 2026-04-26 19:20 | 60.34851 | 22.88467 | 28952 ft | 452 kts | 70° |
| 2026-04-26 19:20 | 60.35233 | 22.92580 | 28716 ft | 446 kts | 70° |
| 2026-04-26 19:20 | 60.35988 | 23.00746 | 28054 ft | 439 kts | 70° |
| 2026-04-26 19:20 | 60.36547 | 23.06766 | 27497 ft | 435 kts | 70° |
| 2026-04-26 19:21 | 60.37106 | 23.12755 | 26875 ft | 433 kts | 70° |
| 2026-04-26 19:21 | 60.37662 | 23.18701 | 26296 ft | 430 kts | 70° |
| 2026-04-26 19:21 | 60.38210 | 23.24627 | 25796 ft | 426 kts | 70° |
| 2026-04-26 19:21 | 60.38742 | 23.30469 | 25463 ft | 418 kts | 70° |
| 2026-04-26 19:22 | 60.39245 | 23.36089 | 24979 ft | 405 kts | 70° |
| 2026-04-26 19:22 | 60.39743 | 23.41685 | 24222 ft | 398 kts | 70° |
| 2026-04-26 19:22 | 60.40233 | 23.47159 | 23480 ft | 392 kts | 70° |
| 2026-04-26 19:22 | 60.40719 | 23.52572 | 22589 ft | 387 kts | 71° |
| 2026-04-26 19:23 | 60.41195 | 23.57886 | 21775 ft | 381 kts | 72° |
| 2026-04-26 19:23 | 60.41660 | 23.63112 | 20962 ft | 375 kts | 72° |
| 2026-04-26 19:23 | 60.41826 | 23.68388 | 20131 ft | 381 kts | 90° |
| 2026-04-26 19:23 | 60.41177 | 23.73618 | 19400 ft | 387 kts | 108° |
| 2026-04-26 19:24 | 60.40114 | 23.78612 | 18692 ft | 384 kts | 109° |
| 2026-04-26 19:24 | 60.39051 | 23.83500 | 17969 ft | 378 kts | 109° |
| 2026-04-26 19:24 | 60.36952 | 23.93072 | 16399 ft | 367 kts | 109° |
| 2026-04-26 19:25 | 60.35922 | 23.97776 | 15645 ft | 366 kts | 109° |
| 2026-04-26 19:25 | 60.35240 | 24.00896 | 15115 ft | 365 kts | 109° |
| 2026-04-26 19:25 | 60.33875 | 24.07131 | 14084 ft | 362 kts | 109° |
| 2026-04-26 19:25 | 60.32862 | 24.11751 | 13278 ft | 358 kts | 109° |
| 2026-04-26 19:26 | 60.31865 | 24.16285 | 12416 ft | 347 kts | 109° |
| 2026-04-26 19:26 | 60.30897 | 24.20666 | 11572 ft | 338 kts | 109° |
| 2026-04-26 19:26 | 60.29946 | 24.24961 | 10749 ft | 330 kts | 109° |
| 2026-04-26 19:26 | 60.29024 | 24.29121 | 9948 ft | 323 kts | 109° |
| 2026-04-26 19:27 | 60.28113 | 24.33221 | 9081 ft | 317 kts | 109° |
| 2026-04-26 19:27 | 60.27220 | 24.37240 | 8240 ft | 311 kts | 109° |
| 2026-04-26 19:27 | 60.26346 | 24.41176 | 7443 ft | 306 kts | 109° |
| 2026-04-26 19:27 | 60.25480 | 24.45075 | 6656 ft | 302 kts | 109° |
| 2026-04-26 19:28 | 60.24628 | 24.48895 | 5987 ft | 295 kts | 109° |
| 2026-04-26 19:28 | 60.23797 | 24.52606 | 5306 ft | 288 kts | 109° |
| 2026-04-26 19:28 | 60.22979 | 24.56256 | 4645 ft | 283 kts | 109° |
| 2026-04-26 19:28 | 60.22186 | 24.59789 | 4049 ft | 275 kts | 109° |
| 2026-04-26 19:29 | 60.21448 | 24.63248 | 3574 ft | 261 kts | 99° |
| 2026-04-26 19:29 | 60.21322 | 24.66387 | 3140 ft | 235 kts | 74° |
| 2026-04-26 19:29 | 60.21814 | 24.69362 | 2661 ft | 215 kts | 52° |
| 2026-04-26 19:30 | 60.22702 | 24.71612 | 2315 ft | 196 kts | 40° |
| 2026-04-26 19:30 | 60.23571 | 24.73511 | 2321 ft | 173 kts | 40° |
| 2026-04-26 19:30 | 60.24329 | 24.75169 | 2203 ft | 152 kts | 39° |
| 2026-04-26 19:30 | 60.24805 | 24.76204 | 2095 ft | 146 kts | 38° |
| 2026-04-26 19:31 | 60.25700 | 24.78149 | 1837 ft | 140 kts | 38° |
| 2026-04-26 19:31 | 60.26352 | 24.79571 | 1662 ft | 138 kts | 39° |
| 2026-04-26 19:31 | 60.27006 | 24.80990 | 1472 ft | 139 kts | 39° |
| 2026-04-26 19:31 | 60.27667 | 24.82434 | 1243 ft | 142 kts | 40° |
| 2026-04-26 19:32 | 60.28344 | 24.83915 | 1048 ft | 145 kts | 41° |
| 2026-04-26 19:32 | 60.29045 | 24.85449 | 818 ft | 153 kts | 43° |
| 2026-04-26 19:32 | 60.29767 | 24.87030 | 592 ft | 152 kts | 43° |
| 2026-04-26 19:32 | 60.30471 | 24.88587 | 416 ft | 149 kts | 43° |
| 2026-04-26 19:33 | 60.31171 | 24.90124 | 239 ft | 148 kts | 43° |
| 2026-04-26 19:33 | 60.31835 | 24.91589 | 164 ft | 127 kts | 45° |
| 2026-04-26 19:33 | 60.32334 | 24.92663 | 160 ft | 80 kts | 47° |
| 2026-04-26 19:33 | 60.32599 | 24.93254 | 168 ft | 42 kts | 47° |
| 2026-04-26 19:34 | 60.32786 | 24.93656 | 173 ft | 37 kts | 47° |
| 2026-04-26 19:34 | 60.32945 | 24.94015 | 177 ft | 33 kts | 47° |
| 2026-04-26 19:34 | 60.33048 | 24.94342 | 175 ft | 23 kts | 100° |
| 2026-04-26 19:34 | 60.33044 | 24.94601 | 163 ft | 0 kts | 91° |
| 2026-04-26 19:35 | 60.33044 | 24.94603 | 162 ft | 1 kts | 91° |
| 2026-04-26 19:35 | 60.33044 | 24.94626 | 162 ft | 5 kts | 91° |
| 2026-04-26 19:35 | 60.33043 | 24.94752 | 162 ft | 8 kts | 91° |
| 2026-04-26 19:36 | 60.33066 | 24.94865 | 161 ft | 10 kts | 52° |
| 2026-04-26 19:36 | 60.33080 | 24.94902 | 161 ft | 10 kts | 51° |
| 2026-04-26 19:36 | 60.33113 | 24.95154 | 161 ft | 12 kts | 76° |
| 2026-04-26 19:36 | 60.33148 | 24.95250 | 161 ft | 13 kts | 48° |
| 2026-04-26 19:37 | 60.33206 | 24.95401 | 161 ft | 14 kts | 68° |
| 2026-04-26 19:37 | 60.33175 | 24.95580 | 161 ft | 15 kts | 134° |
| 2026-04-26 19:37 | 60.33097 | 24.95725 | 161 ft | 16 kts | 141° |
| 2026-04-26 19:37 | 60.33001 | 24.95853 | 161 ft | 17 kts | 149° |
| 2026-04-26 19:38 | 60.32899 | 24.95974 | 161 ft | 17 kts | 150° |
| 2026-04-26 19:38 | 60.32793 | 24.96095 | 161 ft | 18 kts | 150° |
| 2026-04-26 19:38 | 60.32680 | 24.96223 | 161 ft | 19 kts | 151° |
| 2026-04-26 19:38 | 60.32559 | 24.96363 | 161 ft | 21 kts | 150° |
| 2026-04-26 19:39 | 60.32431 | 24.96512 | 161 ft | 21 kts | 149° |
| 2026-04-26 19:39 | 60.32325 | 24.96641 | 161 ft | 14 kts | 149° |
| 2026-04-26 19:39 | 60.32236 | 24.96746 | 161 ft | 15 kts | 149° |
| 2026-04-26 19:39 | 60.32144 | 24.96853 | 161 ft | 15 kts | 150° |
| 2026-04-26 19:40 | 60.32066 | 24.96944 | 161 ft | 14 kts | 150° |
| 2026-04-26 19:40 | 60.32009 | 24.97008 | 161 ft | 0 kts | 152° |
| 2026-04-26 19:40 | 60.31972 | 24.97046 | 161 ft | 16 kts | 154° |
| 2026-04-26 19:40 | 60.31860 | 24.97155 | 161 ft | 15 kts | 153° |
| 2026-04-26 19:41 | 60.31812 | 24.97176 | 161 ft | 5 kts | 215° |
| 2026-04-26 19:41 | 60.31804 | 24.97149 | 161 ft | 4 kts | 238° |
| 2026-04-26 19:41 | 60.31793 | 24.97105 | 161 ft | 2 kts | 244° |
| 2026-04-26 19:41 | 60.31789 | 24.97090 | 161 ft | 2 kts | 243° |
| 2026-04-26 19:42 | 60.31787 | 24.97080 | 161 ft | 0 kts | 243° |